createdAt,value
2022-08-08T00:00:53.525Z,3.30
2022-08-08T00:03:32.369Z,3.15
2022-08-08T00:06:28.619Z,3.20
2022-08-08T00:09:19.996Z,3.00
2022-08-08T00:12:10.608Z,3.63
2022-08-08T00:15:06.136Z,3.50
2022-08-08T00:18:03.703Z,3.15
2022-08-08T00:20:40.605Z,3.47
2022-08-08T00:23:16.660Z,2.92
2022-08-08T00:25:51.108Z,3.40
2022-08-08T00:28:35.955Z,3.15
2022-08-08T00:32:15.415Z,2.67
2022-08-08T00:34:24.365Z,3.67
2022-08-08T00:37:03.370Z,3.05
2022-08-08T00:41:12.290Z,4.30
2022-08-08T00:42:44.029Z,4.18
2022-08-08T00:45:41.902Z,3.05
2022-08-08T00:48:33.858Z,2.90
2022-08-08T00:51:39.030Z,3.67
2022-08-08T00:54:46.701Z,3.17
2022-08-08T00:57:40.716Z,3.63
2022-08-08T01:00:37.778Z,2.90
2022-08-08T01:04:04.523Z,3.50
2022-08-08T01:07:01.448Z,3.55
2022-08-08T01:09:50.821Z,2.88
2022-08-08T01:12:43.218Z,2.85
2022-08-08T01:15:54.494Z,4.85
2022-08-08T01:18:59.461Z,3.08
2022-08-08T01:22:12.434Z,2.95
2022-08-08T01:25:05.125Z,3.30
2022-08-08T01:28:20.731Z,4.22
2022-08-08T01:32:05.201Z,2.80
2022-08-08T01:34:20.265Z,5.07
2022-08-08T01:37:13.839Z,3.03
2022-08-08T01:40:02.720Z,3.25
2022-08-08T01:43:15.696Z,3.03
2022-08-08T01:46:24.091Z,3.40
2022-08-08T01:48:57.082Z,3.63
2022-08-08T01:52:41.361Z,4.07
2022-08-08T01:55:27.053Z,3.10
2022-08-08T01:58:10.959Z,2.72
2022-08-08T02:01:16.054Z,3.10
2022-08-08T02:03:55.959Z,5.95
2022-08-08T02:06:51.878Z,3.03
2022-08-08T02:10:03.559Z,3.00
2022-08-08T02:12:35.331Z,2.53
2022-08-08T02:15:34.613Z,2.60
2022-08-08T02:18:43.865Z,3.00
2022-08-08T02:21:42.657Z,3.55
2022-08-08T02:24:24.458Z,2.75
2022-08-08T02:27:19.324Z,2.58
2022-08-08T02:30:24.838Z,5.75
2022-08-08T02:33:25.087Z,2.75
2022-08-08T02:36:20.365Z,2.55
2022-08-08T02:39:40.808Z,4.93
2022-08-08T02:42:35.851Z,3.17
2022-08-08T02:45:18.576Z,2.85
2022-08-08T02:48:12.162Z,2.63
2022-08-08T02:50:56.999Z,3.97
2022-08-08T02:53:42.497Z,3.10
2022-08-08T02:56:31.506Z,3.00
2022-08-08T02:59:26.000Z,2.67
2022-08-08T03:02:37.934Z,4.70
2022-08-08T03:05:15.006Z,3.17
2022-08-08T03:08:12.465Z,2.88
2022-08-08T03:11:47.365Z,2.75
2022-08-08T03:15:56.775Z,3.28
2022-08-08T03:17:05.337Z,4.63
2022-08-08T03:20:08.065Z,2.92
2022-08-08T03:22:46.246Z,2.80
2022-08-08T03:25:18.642Z,3.22
2022-08-08T03:27:56.327Z,4.15
2022-08-08T03:30:25.322Z,2.70
2022-08-08T03:33:55.885Z,3.45
2022-08-08T03:35:59.742Z,3.45
2022-08-08T03:38:57.649Z,2.95
2022-08-08T03:42:04.105Z,4.18
2022-08-08T03:44:00.286Z,2.90
2022-08-08T03:46:32.253Z,3.80
2022-08-08T03:49:32.886Z,3.20
2022-08-08T03:51:53.142Z,2.90
2022-08-08T03:54:41.138Z,2.63
2022-08-08T03:58:31.900Z,3.50
2022-08-08T04:00:07.955Z,5.10
2022-08-08T04:02:47.550Z,2.90
2022-08-08T04:05:19.373Z,2.75
2022-08-08T04:07:50.888Z,2.80
2022-08-08T04:10:17.921Z,2.90
2022-08-08T04:12:44.708Z,2.90
2022-08-08T04:15:12.781Z,3.05
2022-08-08T04:17:46.216Z,4.20
2022-08-08T04:20:28.481Z,3.20
2022-08-08T04:22:56.920Z,3.45
2022-08-08T04:25:30.148Z,3.30
2022-08-08T04:28:34.283Z,4.10
2022-08-08T04:30:48.260Z,3.03
2022-08-08T04:33:15.819Z,3.08
2022-08-08T04:35:42.977Z,2.92
2022-08-08T04:38:21.362Z,3.53
2022-08-08T04:40:53.368Z,3.08
2022-08-08T04:43:32.471Z,3.22
2022-08-08T04:46:09.878Z,3.08
2022-08-08T04:48:36.811Z,3.20
2022-08-08T04:51:03.621Z,2.85
2022-08-08T04:54:27.391Z,3.85
2022-08-08T04:56:18.442Z,3.28
2022-08-08T04:58:46.253Z,5.45
2022-08-08T05:01:15.657Z,4.57
2022-08-08T05:04:11.359Z,3.08
2022-08-08T05:06:30.282Z,3.05
2022-08-08T05:09:02.173Z,2.90
2022-08-08T05:11:38.652Z,3.28
2022-08-08T05:14:07.916Z,3.47
2022-08-08T05:16:51.733Z,4.47
2022-08-08T05:20:08.909Z,3.20
2022-08-08T05:22:10.232Z,2.72
2022-08-08T05:24:38.601Z,2.85
2022-08-08T05:27:06.621Z,3.28
2022-08-08T05:29:35.902Z,3.58
2022-08-08T05:32:08.224Z,3.78
2022-08-08T05:34:43.499Z,2.90
2022-08-08T05:37:17.230Z,3.25
2022-08-08T05:39:57.791Z,4.13
2022-08-08T05:42:39.158Z,2.72
2022-08-08T05:45:10.394Z,3.08
2022-08-08T05:48:01.255Z,3.78
2022-08-08T05:50:36.307Z,3.05
2022-08-08T05:53:53.996Z,4.90
2022-08-08T05:56:10.287Z,5.82
2022-08-08T05:58:56.869Z,3.10
2022-08-08T06:01:51.286Z,5.03
2022-08-08T06:04:22.859Z,3.15
2022-08-08T06:07:00.223Z,3.15
2022-08-08T06:10:00.169Z,3.65
2022-08-08T06:12:29.843Z,4.07
2022-08-08T06:15:03.228Z,3.20
2022-08-08T06:17:50.974Z,3.53
2022-08-08T06:20:28.203Z,3.63
2022-08-08T06:22:57.999Z,2.95
2022-08-08T06:26:34.934Z,3.50
2022-08-08T06:28:29.478Z,4.80
2022-08-08T06:31:00.898Z,2.78
2022-08-08T06:34:27.461Z,3.50
2022-08-08T06:36:41.764Z,4.18
2022-08-08T06:39:21.951Z,3.88
2022-08-08T06:42:06.464Z,3.60
2022-08-08T06:44:42.280Z,2.90
2022-08-08T06:47:10.668Z,2.88
2022-08-08T06:49:55.461Z,6.25
2022-08-08T06:52:24.365Z,5.57
2022-08-08T06:54:58.700Z,23.10
2022-08-08T06:57:29.055Z,27.30
2022-08-08T07:00:12.124Z,18.40
2022-08-08T07:02:45.294Z,14.25
2022-08-08T07:05:20.420Z,17.55
2022-08-08T07:07:55.459Z,22.63
2022-08-08T07:10:25.491Z,13.52
2022-08-08T07:12:54.347Z,6.95
2022-08-08T07:16:03.999Z,4.72
2022-08-08T07:18:35.112Z,3.42
2022-08-08T07:21:18.474Z,3.40
2022-08-08T07:24:25.444Z,4.15
2022-08-08T07:26:57.711Z,6.78
2022-08-08T07:30:00.132Z,15.85
2022-08-08T07:32:16.868Z,20.02
2022-08-08T07:35:00.065Z,11.77
2022-08-08T07:37:49.684Z,5.78
2022-08-08T07:40:28.825Z,4.93
2022-08-08T07:42:56.688Z,12.07
2022-08-08T07:45:23.921Z,13.77
2022-08-08T07:47:54.747Z,21.98
2022-08-08T07:50:23.452Z,11.55
2022-08-08T07:53:00.620Z,4.88
2022-08-08T07:55:29.842Z,5.85
2022-08-08T07:58:18.426Z,3.90
2022-08-08T08:01:03.832Z,3.42
2022-08-08T08:03:50.902Z,5.50
2022-08-08T08:06:19.959Z,3.05
2022-08-08T08:09:19.877Z,3.00
2022-08-08T08:11:51.968Z,3.88
2022-08-08T08:14:28.654Z,3.03
2022-08-08T08:16:56.328Z,4.82
2022-08-08T08:19:32.100Z,3.05
2022-08-08T08:22:16.230Z,2.75
2022-08-08T08:24:59.105Z,2.55
2022-08-08T08:27:35.702Z,2.78
2022-08-08T08:30:02.813Z,2.97
2022-08-08T08:32:36.597Z,3.08
2022-08-08T08:35:08.446Z,2.95
2022-08-08T08:37:47.960Z,4.00
2022-08-08T08:40:22.702Z,2.60
2022-08-08T08:42:53.575Z,2.67
2022-08-08T08:45:23.470Z,2.85
2022-08-08T08:47:54.260Z,2.67
2022-08-08T08:50:32.978Z,3.78
2022-08-08T08:53:04.697Z,3.17
2022-08-08T08:55:51.029Z,2.83
2022-08-08T08:58:47.027Z,4.07
2022-08-08T09:01:20.424Z,3.55
2022-08-08T09:03:50.760Z,5.63
2022-08-08T09:06:26.761Z,3.30
2022-08-08T09:09:18.856Z,4.05
2022-08-08T09:12:02.253Z,2.92
2022-08-08T09:14:34.006Z,5.30
2022-08-08T09:17:08.497Z,3.28
2022-08-08T09:22:02.128Z,3.40
2022-08-08T09:22:26.870Z,3.00
2022-08-08T09:24:56.091Z,4.32
2022-08-08T09:27:56.315Z,4.95
2022-08-08T09:30:17.450Z,4.13
2022-08-08T09:33:12.479Z,3.40
2022-08-08T09:35:49.104Z,4.22
2022-08-08T09:38:30.337Z,10.15
2022-08-08T09:41:04.189Z,11.73
2022-08-08T09:43:41.239Z,8.77
2022-08-08T09:46:25.616Z,13.52
2022-08-08T09:49:17.907Z,9.07
2022-08-08T09:52:07.536Z,8.18
2022-08-08T09:54:44.639Z,7.85
2022-08-08T09:57:17.001Z,6.97
2022-08-08T10:00:02.293Z,4.60
2022-08-08T10:02:38.412Z,4.28
2022-08-08T10:05:15.058Z,4.03
2022-08-08T10:08:00.574Z,3.63
2022-08-08T10:10:32.786Z,4.30
2022-08-08T10:13:15.722Z,3.90
2022-08-08T10:15:59.000Z,4.20
2022-08-08T10:18:33.678Z,5.10
2022-08-08T10:21:26.237Z,2.63
2022-08-08T10:24:12.260Z,4.97
2022-08-08T10:27:00.378Z,4.10
2022-08-08T10:29:59.532Z,4.57
2022-08-08T10:32:48.676Z,2.78
2022-08-08T10:36:07.601Z,4.25
2022-08-08T10:38:09.164Z,2.95
2022-08-08T10:40:43.436Z,3.25
2022-08-08T10:43:11.079Z,3.88
2022-08-08T10:45:57.111Z,2.80
2022-08-08T10:48:57.252Z,4.20
2022-08-08T10:51:26.215Z,5.82
2022-08-08T10:53:58.927Z,5.32
2022-08-08T10:56:34.996Z,7.10
2022-08-08T10:59:09.363Z,5.25
2022-08-08T11:01:39.311Z,3.88
2022-08-08T11:04:10.936Z,3.30
2022-08-08T11:06:41.634Z,3.67
2022-08-08T11:09:21.524Z,14.57
2022-08-08T11:12:05.960Z,22.60
2022-08-08T11:14:51.935Z,16.58
2022-08-08T11:17:58.621Z,7.35
2022-08-08T11:20:27.591Z,6.85
2022-08-08T11:22:59.632Z,5.22
2022-08-08T11:25:53.316Z,3.80
2022-08-08T11:28:24.942Z,7.00
2022-08-08T11:30:56.738Z,5.93
2022-08-08T11:33:51.474Z,4.38
2022-08-08T11:36:15.044Z,3.58
2022-08-08T11:38:54.172Z,5.03
2022-08-08T11:41:24.459Z,4.25
2022-08-08T11:43:53.858Z,4.05
2022-08-08T11:46:24.571Z,9.07
2022-08-08T11:48:52.693Z,7.15
2022-08-08T11:51:29.628Z,6.57
2022-08-08T11:54:26.949Z,5.18
2022-08-08T11:56:57.737Z,4.85
2022-08-08T12:00:01.139Z,5.22
2022-08-08T12:02:41.637Z,4.07
2022-08-08T12:05:12.460Z,7.38
2022-08-08T12:07:52.575Z,3.10
2022-08-08T12:10:23.572Z,6.05
2022-08-08T12:12:59.959Z,4.47
2022-08-08T12:15:42.879Z,3.60
2022-08-08T12:18:25.536Z,8.05
2022-08-08T12:20:58.890Z,10.95
2022-08-08T12:23:42.737Z,9.90
2022-08-08T12:26:27.807Z,6.67
2022-08-08T12:29:02.936Z,9.35
2022-08-08T12:31:39.184Z,7.07
2022-08-08T12:34:20.121Z,3.65
2022-08-08T12:36:49.246Z,4.07
2022-08-08T12:40:00.457Z,4.35
2022-08-08T12:42:30.960Z,3.30
2022-08-08T12:45:54.775Z,3.72
2022-08-08T12:48:10.430Z,3.45
2022-08-08T12:50:57.408Z,3.35
2022-08-08T12:53:37.750Z,5.15
2022-08-08T12:56:18.834Z,3.17
2022-08-08T12:58:54.408Z,3.40
2022-08-08T13:01:35.062Z,5.05
2022-08-08T13:04:25.015Z,3.85
2022-08-08T13:07:00.956Z,4.00
2022-08-08T13:10:05.248Z,3.55
2022-08-08T13:12:48.712Z,3.25
2022-08-08T13:15:19.430Z,3.20
2022-08-08T13:18:09.759Z,4.97
2022-08-08T13:20:34.514Z,3.40
2022-08-08T13:23:30.709Z,2.80
2022-08-08T13:25:50.261Z,4.35
2022-08-08T13:28:27.869Z,2.97
2022-08-08T13:30:56.904Z,5.80
2022-08-08T13:33:25.225Z,4.45
2022-08-08T13:35:55.495Z,3.90
2022-08-08T13:38:23.825Z,4.65
2022-08-08T13:41:04.716Z,3.80
2022-08-08T13:43:32.405Z,4.72
2022-08-08T13:46:28.445Z,4.28
2022-08-08T13:49:11.344Z,3.42
2022-08-08T13:52:23.211Z,3.67
2022-08-08T13:55:03.387Z,2.90
2022-08-08T13:58:06.504Z,4.75
2022-08-08T14:00:21.811Z,4.05
2022-08-08T14:03:20.066Z,11.18
2022-08-08T14:06:00.678Z,2.88
2022-08-08T14:08:30.314Z,2.80
2022-08-08T14:11:01.685Z,3.85
2022-08-08T14:13:33.725Z,3.00
2022-08-08T14:16:07.740Z,3.10
2022-08-08T14:18:52.012Z,2.88
2022-08-08T14:21:22.534Z,4.00
2022-08-08T14:24:07.911Z,13.00
2022-08-08T14:26:46.296Z,9.02
2022-08-08T14:29:28.226Z,5.13
2022-08-08T14:32:08.817Z,3.42
2022-08-08T14:34:49.833Z,3.30
2022-08-08T14:37:19.059Z,3.95
2022-08-08T14:39:50.497Z,5.10
2022-08-08T14:42:54.631Z,4.45
2022-08-08T14:45:33.456Z,3.20
2022-08-08T14:48:17.782Z,4.53
2022-08-08T14:51:06.506Z,4.50
2022-08-08T14:53:56.237Z,7.03
2022-08-08T14:56:25.733Z,12.95
2022-08-08T14:58:56.425Z,12.35
2022-08-08T15:01:42.150Z,8.85
2022-08-08T15:04:16.919Z,5.95
2022-08-08T15:06:46.423Z,4.50
2022-08-08T15:09:19.643Z,4.28
2022-08-08T15:11:52.832Z,3.72
2022-08-08T15:14:26.604Z,3.53
2022-08-08T15:16:55.018Z,3.10
2022-08-08T15:19:24.073Z,2.80
2022-08-08T15:21:55.316Z,2.63
2022-08-08T15:24:25.094Z,3.13
2022-08-08T15:26:58.770Z,3.42
2022-08-08T15:29:39.017Z,2.67
2022-08-08T15:32:19.489Z,3.95
2022-08-08T15:34:48.262Z,2.50
2022-08-08T15:37:15.046Z,3.08
2022-08-08T15:39:44.302Z,2.67
2022-08-08T15:42:31.661Z,5.05
2022-08-08T15:45:00.822Z,2.78
2022-08-08T15:47:28.761Z,4.07
2022-08-08T15:49:59.115Z,2.67
2022-08-08T15:52:26.115Z,4.40
2022-08-08T15:54:53.367Z,3.08
2022-08-08T15:57:22.393Z,3.28
2022-08-08T16:00:14.147Z,4.32
2022-08-08T16:02:37.515Z,2.67
2022-08-08T16:05:14.340Z,2.65
2022-08-08T16:07:51.714Z,2.63
2022-08-08T16:13:09.375Z,2.50
2022-08-08T16:13:33.624Z,2.88
2022-08-08T16:15:59.235Z,2.85
2022-08-08T16:18:36.065Z,3.00
2022-08-08T16:21:03.742Z,3.13
2022-08-08T16:23:47.605Z,2.55
2022-08-08T16:26:19.545Z,2.92
2022-08-08T16:31:16.581Z,2.75
2022-08-08T16:33:58.074Z,5.95
2022-08-08T16:36:33.586Z,4.07
2022-08-08T16:39:00.718Z,2.85
2022-08-08T16:41:27.505Z,2.33
2022-08-08T16:43:56.349Z,2.60
2022-08-08T16:46:37.591Z,2.72
2022-08-08T16:49:10.971Z,2.65
2022-08-08T16:55:01.615Z,2.78
2022-08-08T16:55:22.583Z,3.55
2022-08-08T16:58:11.883Z,2.53
2022-08-08T17:00:06.172Z,4.57
2022-08-08T17:02:39.453Z,2.80
2022-08-08T17:05:07.960Z,2.78
2022-08-08T17:07:37.915Z,3.13
2022-08-08T17:10:08.578Z,2.90
2022-08-08T17:12:36.755Z,2.92
2022-08-08T17:15:17.814Z,3.22
2022-08-08T17:18:03.055Z,2.55
2022-08-08T17:20:32.691Z,2.58
2022-08-08T17:23:18.397Z,4.40
2022-08-08T17:25:53.352Z,2.95
2022-08-08T17:28:34.027Z,3.63
2022-08-08T17:31:39.528Z,3.10
2022-08-08T17:34:52.769Z,2.70
2022-08-08T17:36:38.333Z,4.13
2022-08-08T17:40:03.321Z,4.00
2022-08-08T17:42:12.666Z,6.57
2022-08-08T17:44:39.854Z,3.45
2022-08-08T17:47:16.225Z,3.55
2022-08-08T17:49:52.341Z,3.80
2022-08-08T17:52:20.262Z,4.38
2022-08-08T17:54:51.921Z,17.38
2022-08-08T17:57:23.865Z,24.80
2022-08-08T17:59:58.623Z,19.45
2022-08-08T18:02:29.952Z,15.63
2022-08-08T18:05:00.969Z,13.75
2022-08-08T18:08:03.413Z,9.23
2022-08-08T18:10:20.348Z,5.90
2022-08-08T18:12:58.686Z,5.07
2022-08-08T18:15:28.455Z,4.72
2022-08-08T18:18:09.383Z,5.47
2022-08-08T18:20:54.954Z,5.20
2022-08-08T18:23:26.616Z,3.95
2022-08-08T18:25:53.526Z,3.15
2022-08-08T18:28:25.639Z,3.22
2022-08-08T18:30:52.803Z,3.75
2022-08-08T18:33:36.460Z,3.50
2022-08-08T18:36:11.509Z,2.85
2022-08-08T18:38:50.761Z,2.47
2022-08-08T18:41:19.149Z,2.50
2022-08-08T18:43:46.281Z,2.67
2022-08-08T18:46:54.755Z,2.97
2022-08-08T18:49:00.019Z,2.60
2022-08-08T18:51:53.376Z,2.30
2022-08-08T18:54:22.749Z,2.60
2022-08-08T18:56:57.396Z,2.38
2022-08-08T18:59:24.661Z,4.85
2022-08-08T19:02:27.309Z,2.20
2022-08-08T19:04:50.435Z,1.90
2022-08-08T19:07:22.851Z,4.22
2022-08-08T19:10:14.835Z,7.88
2022-08-08T19:12:44.827Z,26.50
2022-08-08T19:15:23.694Z,37.85
2022-08-08T19:18:31.158Z,39.80
2022-08-08T19:20:40.886Z,34.42
2022-08-08T19:23:13.450Z,30.45
2022-08-08T19:26:02.019Z,23.40
2022-08-08T19:28:29.041Z,17.52
2022-08-08T19:31:04.057Z,11.15
2022-08-08T19:33:39.486Z,7.28
2022-08-08T19:36:25.108Z,7.25
2022-08-08T19:38:55.622Z,19.73
2022-08-08T19:41:26.324Z,29.45
2022-08-08T19:44:02.761Z,29.52
2022-08-08T19:46:33.244Z,35.25
2022-08-08T19:49:01.317Z,34.75
2022-08-08T19:51:34.117Z,31.63
2022-08-08T19:54:01.795Z,26.38
2022-08-08T19:56:40.313Z,18.40
2022-08-08T19:59:09.017Z,12.40
2022-08-08T20:01:50.329Z,9.65
2022-08-08T20:04:23.944Z,14.45
2022-08-08T20:06:51.901Z,11.75
2022-08-08T20:09:22.632Z,9.52
2022-08-08T20:11:50.619Z,9.73
2022-08-08T20:14:34.037Z,11.85
2022-08-08T20:17:03.383Z,9.77
2022-08-08T20:19:34.185Z,7.75
2022-08-08T20:22:20.593Z,5.28
2022-08-08T20:24:48.630Z,4.65
2022-08-08T20:27:20.230Z,4.18
2022-08-08T20:30:00.270Z,4.85
2022-08-08T20:32:29.742Z,3.25
2022-08-08T20:35:01.074Z,4.60
2022-08-08T20:37:47.120Z,3.25
2022-08-08T20:40:33.205Z,2.67
2022-08-08T20:43:16.489Z,3.60
2022-08-08T20:45:55.023Z,2.60
2022-08-08T20:48:28.228Z,2.75
2022-08-08T20:50:55.520Z,3.30
2022-08-08T20:53:57.803Z,6.18
2022-08-08T20:56:09.734Z,9.45
2022-08-08T20:58:38.804Z,17.50
2022-08-08T21:01:19.624Z,37.67
2022-08-08T21:03:56.108Z,24.08
2022-08-08T21:06:53.187Z,32.00
2022-08-08T21:09:16.219Z,47.08
2022-08-08T21:11:51.451Z,27.27
2022-08-08T21:14:30.079Z,14.13
2022-08-08T21:17:03.265Z,9.48
2022-08-08T21:19:45.485Z,20.13
2022-08-08T21:22:14.087Z,23.88
2022-08-08T21:24:41.892Z,14.38
2022-08-08T21:28:05.637Z,7.07
2022-08-08T21:30:10.757Z,4.82
2022-08-08T21:32:45.898Z,3.55
2022-08-08T21:36:17.732Z,4.10
2022-08-08T21:38:11.788Z,4.07
2022-08-08T21:40:56.094Z,3.75
2022-08-08T21:43:33.999Z,7.63
2022-08-08T21:48:05.443Z,21.48
2022-08-08T21:48:53.719Z,26.48
2022-08-08T21:54:18.885Z,28.23
2022-08-08T21:54:51.743Z,27.13
2022-08-08T21:57:04.125Z,29.33
2022-08-08T22:00:01.183Z,27.25
2022-08-08T22:02:19.585Z,21.08
2022-08-08T22:04:50.142Z,20.15
2022-08-08T22:07:18.287Z,28.05
2022-08-08T22:09:46.346Z,24.70
2022-08-08T22:12:16.851Z,21.63
2022-08-08T22:14:47.303Z,16.00
2022-08-08T22:17:18.266Z,11.82
2022-08-08T22:20:13.161Z,8.43
2022-08-08T22:22:37.789Z,5.53
2022-08-08T22:25:24.449Z,3.65
2022-08-08T22:28:03.985Z,2.78
2022-08-08T22:30:33.598Z,3.65
2022-08-08T22:33:02.057Z,2.92
2022-08-08T22:36:04.364Z,2.15
2022-08-08T22:38:17.447Z,2.53
2022-08-08T22:40:44.812Z,2.25
2022-08-08T22:43:11.772Z,2.58
2022-08-08T22:45:39.153Z,3.38
2022-08-08T22:48:06.315Z,8.45
2022-08-08T22:50:33.731Z,2.80
2022-08-08T22:54:33.967Z,3.22
2022-08-08T22:55:58.416Z,2.72
2022-08-08T22:58:34.137Z,5.22
2022-08-08T23:02:01.069Z,2.42
2022-08-08T23:03:54.988Z,2.58
2022-08-08T23:06:23.361Z,4.03
2022-08-08T23:08:55.612Z,3.40
2022-08-08T23:12:17.854Z,2.17
2022-08-08T23:14:19.326Z,2.85
2022-08-08T23:16:54.446Z,2.08
2022-08-08T23:19:25.257Z,4.70
2022-08-08T23:21:52.696Z,3.08
2022-08-08T23:24:22.193Z,3.25
2022-08-08T23:26:55.345Z,2.08
2022-08-08T23:29:25.217Z,2.22
2022-08-08T23:31:52.319Z,2.17
2022-08-08T23:34:20.495Z,4.10
2022-08-08T23:36:48.550Z,2.50
2022-08-08T23:39:15.826Z,2.33
2022-08-08T23:41:46.899Z,2.40
2022-08-08T23:44:18.807Z,2.45
2022-08-08T23:49:04.026Z,2.53
2022-08-08T23:49:34.137Z,2.33
2022-08-08T23:52:05.910Z,2.63
2022-08-08T23:54:53.113Z,2.28
2022-08-08T23:57:38.602Z,2.25
